createdAt,value
2022-12-11T00:02:09.932Z,98.07
2022-12-11T00:04:39.516Z,98.77
2022-12-11T00:07:09.234Z,98.63
2022-12-11T00:09:40.399Z,97.99
2022-12-11T00:12:10.612Z,98.22
2022-12-11T00:14:40.834Z,98.99
2022-12-11T00:17:10.777Z,99.00
2022-12-11T00:19:40.327Z,98.41
2022-12-11T00:22:09.861Z,97.43
2022-12-11T00:24:40.808Z,97.49
2022-12-11T00:27:10.322Z,97.85
2022-12-11T00:29:39.896Z,96.91
2022-12-11T00:32:09.540Z,95.80
2022-12-11T00:34:39.144Z,96.33
2022-12-11T00:37:08.912Z,96.41
2022-12-11T00:39:39.797Z,96.15
2022-12-11T00:42:10.982Z,96.20
2022-12-11T00:44:40.763Z,96.26
2022-12-11T00:47:10.561Z,95.98
2022-12-11T00:49:42.849Z,95.96
2022-12-11T00:52:14.677Z,95.37
2022-12-11T00:54:44.280Z,96.17
2022-12-11T00:57:15.317Z,96.09
2022-12-11T00:59:45.158Z,96.51
2022-12-11T01:02:15.023Z,95.92
2022-12-11T01:04:44.622Z,96.24
2022-12-11T01:07:14.134Z,96.77
2022-12-11T01:10:00.417Z,96.83
2022-12-11T01:12:32.065Z,95.97
2022-12-11T01:15:02.559Z,95.47
2022-12-11T01:17:32.759Z,95.07
2022-12-11T01:20:02.535Z,95.43
2022-12-11T01:22:32.365Z,94.92
2022-12-11T01:25:01.748Z,94.37
2022-12-11T01:27:32.909Z,94.67
2022-12-11T01:30:02.430Z,94.75
2022-12-11T01:32:32.164Z,95.15
2022-12-11T01:35:02.129Z,95.33
2022-12-11T01:37:31.801Z,94.35
2022-12-11T01:40:01.676Z,93.86
2022-12-11T01:42:32.687Z,94.22
2022-12-11T01:45:27.184Z,93.94
2022-12-11T01:48:00.954Z,94.32
2022-12-11T01:50:32.476Z,94.45
2022-12-11T01:53:02.170Z,94.68
2022-12-11T01:55:31.682Z,94.94
2022-12-11T01:58:03.623Z,94.84
2022-12-11T02:00:33.730Z,94.87
2022-12-11T02:03:03.253Z,94.36
2022-12-11T02:05:32.758Z,94.25
2022-12-11T02:08:03.412Z,93.96
2022-12-11T02:10:38.768Z,93.99
2022-12-11T02:13:14.078Z,93.46
2022-12-11T02:15:49.942Z,93.65
2022-12-11T02:18:26.631Z,93.98
2022-12-11T02:20:58.743Z,93.59
2022-12-11T02:23:45.926Z,92.51
2022-12-11T02:26:23.256Z,92.43
2022-12-11T02:28:56.525Z,92.90
2022-12-11T02:31:28.919Z,93.33
2022-12-11T02:34:02.348Z,93.01
2022-12-11T02:36:34.471Z,92.58
2022-12-11T02:39:05.592Z,92.80
2022-12-11T02:41:35.133Z,92.93
2022-12-11T02:44:07.377Z,93.58
2022-12-11T02:46:37.786Z,92.98
2022-12-11T02:49:08.190Z,93.03
2022-12-11T02:51:39.723Z,93.03
2022-12-11T02:54:13.457Z,93.46
2022-12-11T02:56:44.598Z,92.44
2022-12-11T02:59:17.340Z,92.73
2022-12-11T03:01:47.267Z,92.32
2022-12-11T03:04:17.199Z,91.99
2022-12-11T03:06:48.941Z,92.37
2022-12-11T03:09:18.540Z,92.29
2022-12-11T03:11:48.890Z,92.29
2022-12-11T03:14:20.569Z,91.98
2022-12-11T03:16:56.608Z,91.04
2022-12-11T03:19:30.184Z,91.52
2022-12-11T03:22:02.354Z,91.51
2022-12-11T03:24:35.972Z,91.96
2022-12-11T03:27:11.271Z,91.74
2022-12-11T03:29:47.652Z,92.09
2022-12-11T03:32:23.036Z,92.24
2022-12-11T03:34:58.216Z,92.85
2022-12-11T03:37:30.023Z,92.30
2022-12-11T03:40:04.077Z,92.65
2022-12-11T03:42:34.439Z,93.06
2022-12-11T03:45:06.491Z,93.37
2022-12-11T03:47:36.140Z,93.68
2022-12-11T03:50:07.561Z,92.89
2022-12-11T03:52:43.993Z,92.46
2022-12-11T03:55:17.277Z,93.31
2022-12-11T03:57:46.747Z,92.49
2022-12-11T04:00:19.488Z,92.58
2022-12-11T04:03:13.270Z,93.24
2022-12-11T04:05:44.000Z,92.78
2022-12-11T04:08:14.037Z,93.38
2022-12-11T04:10:43.685Z,92.89
2022-12-11T04:13:15.686Z,93.84
2022-12-11T04:15:46.161Z,93.95
2022-12-11T04:18:33.414Z,94.11
2022-12-11T04:21:19.969Z,94.27
2022-12-11T04:24:07.078Z,94.70
2022-12-11T04:26:36.584Z,94.85
2022-12-11T04:29:06.406Z,95.35
2022-12-11T04:31:37.638Z,95.34
2022-12-11T04:34:07.244Z,95.84
2022-12-11T04:36:37.022Z,95.67
2022-12-11T04:39:07.014Z,95.83
2022-12-11T04:41:37.230Z,95.92
2022-12-11T04:44:06.870Z,95.44
2022-12-11T04:46:37.982Z,95.88
2022-12-11T04:49:07.768Z,95.56
2022-12-11T04:51:37.514Z,95.11
2022-12-11T04:54:06.980Z,94.98
2022-12-11T04:56:36.733Z,94.87
2022-12-11T04:59:06.536Z,95.51
2022-12-11T05:01:37.455Z,95.82
2022-12-11T05:04:07.196Z,95.92
2022-12-11T05:06:36.767Z,95.40
2022-12-11T05:09:06.561Z,95.88
2022-12-11T05:11:37.376Z,95.93
2022-12-11T05:14:07.493Z,95.79
2022-12-11T05:16:38.806Z,96.06
2022-12-11T05:19:08.527Z,96.79
2022-12-11T05:21:38.083Z,96.47
2022-12-11T05:24:08.034Z,96.41
2022-12-11T05:26:37.613Z,96.51
2022-12-11T05:29:07.141Z,96.45
2022-12-11T05:31:38.087Z,96.50
2022-12-11T05:34:07.632Z,96.40
2022-12-11T05:36:37.178Z,96.84
2022-12-11T05:39:06.661Z,97.08
2022-12-11T05:41:36.288Z,97.22
2022-12-11T05:44:05.946Z,96.77
2022-12-11T05:46:35.873Z,97.16
2022-12-11T05:49:06.933Z,97.04
2022-12-11T05:51:36.457Z,96.92
2022-12-11T05:54:06.531Z,96.68
2022-12-11T05:56:36.356Z,96.35
2022-12-11T05:59:06.915Z,95.29
2022-12-11T06:01:38.232Z,95.56
2022-12-11T06:04:09.754Z,94.42
2022-12-11T06:06:40.463Z,94.54
2022-12-11T06:09:13.967Z,93.86
2022-12-11T06:11:46.810Z,94.34
2022-12-11T06:14:16.856Z,94.84
2022-12-11T06:16:47.064Z,94.86
2022-12-11T06:19:18.578Z,94.82
2022-12-11T06:21:48.943Z,95.37
2022-12-11T06:24:18.654Z,95.55
2022-12-11T06:26:48.215Z,95.13
2022-12-11T06:29:18.128Z,95.41
2022-12-11T06:31:47.849Z,95.38
2022-12-11T06:34:18.878Z,95.19
2022-12-11T06:36:48.254Z,94.97
2022-12-11T06:39:17.905Z,95.36
2022-12-11T06:41:47.909Z,95.47
2022-12-11T06:44:17.436Z,95.19
2022-12-11T06:46:48.333Z,95.51
2022-12-11T06:49:19.471Z,94.96
2022-12-11T06:51:48.981Z,94.48
2022-12-11T06:54:18.736Z,95.15
2022-12-11T06:56:48.265Z,94.72
2022-12-11T06:59:18.460Z,93.79
2022-12-11T07:01:48.262Z,92.96
2022-12-11T07:04:19.433Z,92.29
2022-12-11T07:06:49.305Z,91.61
2022-12-11T07:09:18.972Z,91.93
2022-12-11T07:11:50.629Z,91.46
2022-12-11T07:14:20.860Z,90.66
2022-12-11T07:16:50.910Z,90.60
2022-12-11T07:19:22.385Z,90.73
2022-12-11T07:21:52.537Z,90.80
2022-12-11T07:24:22.308Z,89.95
2022-12-11T07:26:52.858Z,89.48
2022-12-11T07:29:22.484Z,89.38
2022-12-11T07:31:52.133Z,90.02
2022-12-11T07:34:23.153Z,89.50
2022-12-11T07:36:52.826Z,88.17
2022-12-11T07:39:22.471Z,88.06
2022-12-11T07:41:52.012Z,87.66
2022-12-11T07:44:22.006Z,87.34
2022-12-11T07:46:51.523Z,87.23
2022-12-11T07:49:21.098Z,87.53
2022-12-11T07:51:51.994Z,87.90
2022-12-11T07:54:21.681Z,87.93
2022-12-11T07:56:53.753Z,87.59
2022-12-11T07:59:23.657Z,87.26
2022-12-11T08:01:53.284Z,87.49
2022-12-11T08:04:23.034Z,87.60
2022-12-11T08:06:54.132Z,87.84
2022-12-11T08:09:25.833Z,87.80
2022-12-11T08:11:57.426Z,88.43
2022-12-11T08:14:27.478Z,88.53
2022-12-11T08:16:58.165Z,88.39
2022-12-11T08:19:27.901Z,88.48
2022-12-11T08:21:58.877Z,88.11
2022-12-11T08:24:28.604Z,87.78
2022-12-11T08:26:58.270Z,87.85
2022-12-11T08:29:27.951Z,87.97
2022-12-11T08:31:57.464Z,87.86
2022-12-11T08:34:27.286Z,87.15
2022-12-11T08:36:58.576Z,87.84
2022-12-11T08:39:28.186Z,87.86
2022-12-11T08:41:58.756Z,88.71
2022-12-11T08:44:28.418Z,88.21
2022-12-11T08:46:57.957Z,87.79
2022-12-11T08:49:32.691Z,87.88
2022-12-11T08:52:06.088Z,87.56
2022-12-11T08:54:35.535Z,87.20
2022-12-11T08:57:05.246Z,86.21
2022-12-11T08:59:34.976Z,86.76
2022-12-11T09:02:04.510Z,86.93
2022-12-11T09:04:34.100Z,86.89
2022-12-11T09:07:04.970Z,87.25
2022-12-11T09:09:34.717Z,87.01
2022-12-11T09:12:05.061Z,86.20
2022-12-11T09:14:35.554Z,86.07
2022-12-11T09:17:06.489Z,86.19
2022-12-11T09:19:36.395Z,86.22
2022-12-11T09:22:09.810Z,86.48
2022-12-11T09:24:39.759Z,86.54
2022-12-11T09:27:09.613Z,85.14
2022-12-11T09:29:39.709Z,85.33
2022-12-11T09:32:09.233Z,85.41
2022-12-11T09:34:38.822Z,84.92
2022-12-11T09:37:09.750Z,85.23
2022-12-11T09:39:39.258Z,85.45
2022-12-11T09:42:15.142Z,85.16
2022-12-11T09:44:47.526Z,85.44
2022-12-11T09:47:28.676Z,85.07
2022-12-11T09:50:02.175Z,85.06
2022-12-11T09:52:37.453Z,84.89
2022-12-11T09:55:14.176Z,85.08
2022-12-11T09:57:47.399Z,85.12
2022-12-11T10:00:21.890Z,84.50
2022-12-11T10:03:00.172Z,84.04
2022-12-11T10:05:34.161Z,83.77
2022-12-11T10:08:10.192Z,83.88
2022-12-11T10:10:43.072Z,83.77
2022-12-11T10:13:27.416Z,83.75
2022-12-11T10:16:01.183Z,83.56
2022-12-11T10:18:31.537Z,83.66
2022-12-11T10:21:03.372Z,82.97
2022-12-11T10:23:37.338Z,83.09
2022-12-11T10:26:08.119Z,83.20
2022-12-11T10:28:37.796Z,83.05
2022-12-11T10:31:19.120Z,82.77
2022-12-11T10:33:55.541Z,82.16
2022-12-11T10:36:28.110Z,81.32
2022-12-11T10:38:59.488Z,81.74
2022-12-11T10:41:36.542Z,81.03
2022-12-11T10:44:16.040Z,81.30
2022-12-11T10:46:46.175Z,80.10
2022-12-11T10:49:23.406Z,80.18
2022-12-11T10:51:53.793Z,79.28
2022-12-11T10:54:33.547Z,78.34
2022-12-11T10:57:04.535Z,78.86
2022-12-11T10:59:37.699Z,78.85
2022-12-11T11:02:20.232Z,77.82
2022-12-11T11:04:50.504Z,78.59
2022-12-11T11:07:21.634Z,78.32
2022-12-11T11:09:54.392Z,77.50
2022-12-11T11:12:26.393Z,77.02
2022-12-11T11:15:00.333Z,76.58
2022-12-11T11:17:35.077Z,76.62
2022-12-11T11:20:08.091Z,76.16
2022-12-11T11:22:40.101Z,74.58
2022-12-11T11:25:18.287Z,73.89
2022-12-11T11:27:50.943Z,74.68
2022-12-11T11:30:22.518Z,74.58
2022-12-11T11:32:54.426Z,74.56
2022-12-11T11:35:26.642Z,73.99
2022-12-11T11:38:01.019Z,74.32
2022-12-11T11:40:34.318Z,73.91
2022-12-11T11:43:08.451Z,74.13
2022-12-11T11:45:42.149Z,73.93
2022-12-11T11:48:19.685Z,73.25
2022-12-11T11:50:50.603Z,72.77
2022-12-11T11:53:22.340Z,73.39
2022-12-11T11:55:59.801Z,72.44
2022-12-11T11:58:36.235Z,71.62
2022-12-11T12:01:06.218Z,72.78
2022-12-11T12:03:36.976Z,72.85
2022-12-11T12:06:15.127Z,72.49
2022-12-11T12:08:47.681Z,73.22
2022-12-11T12:11:23.708Z,73.26
2022-12-11T12:13:59.970Z,72.90
2022-12-11T12:19:33.787Z,72.68
2022-12-11T12:22:10.777Z,71.91
2022-12-11T12:24:44.597Z,72.06
2022-12-11T12:27:50.469Z,72.37
2022-12-11T12:30:16.148Z,71.81
2022-12-11T12:32:54.581Z,72.30
2022-12-11T12:35:31.419Z,72.55
2022-12-11T12:38:06.899Z,72.80
2022-12-11T12:40:40.964Z,73.90
2022-12-11T12:43:22.853Z,73.73
2022-12-11T12:45:55.322Z,74.22
2022-12-11T12:48:25.631Z,74.36
2022-12-11T12:50:56.130Z,74.76
2022-12-11T12:53:28.040Z,74.39
2022-12-11T12:55:57.757Z,75.06
2022-12-11T12:58:32.015Z,75.75
2022-12-11T13:01:09.407Z,75.91
2022-12-11T13:03:51.166Z,76.21
2022-12-11T13:06:29.561Z,76.66
2022-12-11T13:08:59.554Z,76.05
2022-12-11T13:11:33.202Z,75.43
2022-12-11T13:14:06.368Z,75.98
2022-12-11T13:16:37.915Z,75.73
2022-12-11T13:19:17.913Z,75.43
2022-12-11T13:21:56.061Z,75.63
2022-12-11T13:24:27.571Z,76.24
2022-12-11T13:26:57.568Z,77.17
2022-12-11T13:29:32.964Z,76.80
2022-12-11T13:32:04.359Z,75.94
2022-12-11T13:34:34.610Z,76.61
2022-12-11T13:37:05.085Z,77.62
2022-12-11T13:39:36.278Z,78.68
2022-12-11T13:42:10.831Z,78.95
2022-12-11T13:44:48.695Z,78.12
2022-12-11T13:47:19.762Z,79.05
2022-12-11T13:49:51.604Z,78.79
2022-12-11T13:52:25.771Z,79.60
2022-12-11T13:54:56.439Z,79.99
2022-12-11T13:57:26.813Z,80.71
2022-12-11T13:59:59.518Z,81.22
2022-12-11T14:02:31.149Z,81.04
2022-12-11T14:05:01.961Z,81.62
2022-12-11T14:07:34.765Z,81.18
2022-12-11T14:10:08.140Z,80.25
2022-12-11T14:12:38.473Z,80.89
2022-12-11T14:15:14.141Z,81.71
2022-12-11T14:17:50.034Z,82.02
2022-12-11T14:20:22.750Z,81.72
2022-12-11T14:22:52.639Z,82.73
2022-12-11T14:25:24.863Z,83.37
2022-12-11T14:27:55.283Z,83.15
2022-12-11T14:30:28.891Z,83.77
2022-12-11T14:32:59.528Z,84.00
2022-12-11T14:35:35.528Z,84.08
2022-12-11T14:38:12.463Z,85.28
2022-12-11T14:40:44.631Z,85.28
2022-12-11T14:43:16.549Z,85.62
2022-12-11T14:45:50.105Z,86.63
2022-12-11T14:48:22.251Z,85.80
2022-12-11T14:50:53.205Z,85.68
2022-12-11T14:53:24.378Z,86.29
2022-12-11T14:55:54.271Z,86.31
2022-12-11T14:58:24.987Z,85.90
2022-12-11T15:00:59.984Z,86.48
2022-12-11T15:03:32.307Z,85.94
2022-12-11T15:06:02.442Z,86.35
2022-12-11T15:08:33.266Z,86.48
2022-12-11T15:11:07.710Z,86.68
2022-12-11T15:13:38.972Z,87.32
2022-12-11T15:16:11.121Z,87.42
2022-12-11T15:18:42.142Z,88.15
2022-12-11T15:21:13.659Z,88.44
2022-12-11T15:23:50.763Z,88.88
2022-12-11T15:26:20.619Z,90.05
2022-12-11T15:29:00.187Z,89.73
2022-12-11T15:31:32.345Z,89.42
2022-12-11T15:34:02.317Z,89.94
2022-12-11T15:36:33.293Z,89.18
2022-12-11T15:39:03.349Z,89.42
2022-12-11T15:41:34.759Z,88.63
2022-12-11T15:44:05.320Z,89.30
2022-12-11T15:46:37.904Z,89.55
2022-12-11T15:49:13.475Z,89.63
2022-12-11T15:51:43.571Z,89.82
2022-12-11T15:54:13.321Z,89.29
2022-12-11T15:56:42.799Z,89.38
2022-12-11T15:59:12.923Z,89.68
2022-12-11T16:01:44.456Z,89.81
2022-12-11T16:04:14.267Z,90.02
2022-12-11T16:06:46.374Z,89.56
2022-12-11T16:09:16.035Z,89.21
2022-12-11T16:11:46.329Z,89.17
2022-12-11T16:14:16.298Z,89.74
2022-12-11T16:16:48.102Z,89.26
2022-12-11T16:19:17.638Z,90.18
2022-12-11T16:21:47.270Z,90.94
2022-12-11T16:24:17.018Z,91.82
2022-12-11T16:26:46.767Z,92.28
2022-12-11T16:29:16.531Z,90.94
2022-12-11T16:31:46.317Z,91.36
2022-12-11T16:34:17.447Z,91.45
2022-12-11T16:36:47.007Z,91.10
2022-12-11T16:39:16.563Z,90.91
2022-12-11T16:41:46.106Z,90.91
2022-12-11T16:44:19.959Z,91.43
2022-12-11T16:46:49.969Z,92.28
2022-12-11T16:49:21.230Z,92.70
2022-12-11T16:51:50.770Z,92.40
2022-12-11T16:54:20.446Z,92.52
2022-12-11T16:56:50.025Z,92.55
2022-12-11T16:59:20.946Z,92.13
2022-12-11T17:01:51.281Z,92.67
2022-12-11T17:04:22.462Z,92.96
2022-12-11T17:06:52.431Z,92.78
2022-12-11T17:09:22.358Z,93.22
2022-12-11T17:11:52.822Z,93.32
2022-12-11T17:14:23.029Z,93.69
2022-12-11T17:16:53.617Z,93.99
2022-12-11T17:19:24.574Z,94.46
2022-12-11T17:21:55.617Z,94.88
2022-12-11T17:24:25.663Z,94.91
2022-12-11T17:26:55.855Z,95.04
2022-12-11T17:29:25.721Z,94.91
2022-12-11T17:31:55.315Z,95.05
2022-12-11T17:34:26.481Z,95.82
2022-12-11T17:36:56.079Z,95.62
2022-12-11T17:39:25.669Z,95.54
2022-12-11T17:41:55.386Z,95.35
2022-12-11T17:44:26.776Z,95.30
2022-12-11T17:46:56.608Z,95.96
2022-12-11T17:49:27.881Z,96.03
2022-12-11T17:51:57.688Z,96.13
2022-12-11T17:54:27.168Z,96.30
2022-12-11T17:56:56.861Z,95.96
2022-12-11T17:59:26.409Z,96.54
2022-12-11T18:01:56.168Z,96.06
2022-12-11T18:04:27.187Z,96.17
2022-12-11T18:06:56.722Z,96.48
2022-12-11T18:09:26.233Z,96.46
2022-12-11T18:11:56.372Z,96.17
2022-12-11T18:14:26.361Z,96.34
2022-12-11T18:16:56.820Z,96.14
2022-12-11T18:19:28.003Z,96.54
2022-12-11T18:21:57.816Z,96.50
2022-12-11T18:24:31.780Z,96.54
2022-12-11T18:27:01.619Z,97.21
2022-12-11T18:29:31.376Z,96.87
2022-12-11T18:32:03.664Z,96.98
2022-12-11T18:34:34.908Z,97.21
2022-12-11T18:37:04.525Z,97.22
2022-12-11T18:39:34.317Z,96.89
2022-12-11T18:42:31.797Z,97.28
2022-12-11T18:44:53.626Z,96.89
2022-12-11T18:47:23.129Z,97.35
2022-12-11T18:49:54.120Z,97.20
2022-12-11T18:52:23.689Z,97.02
2022-12-11T18:54:53.309Z,96.92
2022-12-11T18:57:23.122Z,97.11
2022-12-11T18:59:53.141Z,96.80
2022-12-11T19:02:23.339Z,97.01
2022-12-11T19:04:54.237Z,92.41
2022-12-11T19:07:23.787Z,88.99
2022-12-11T19:09:53.377Z,83.64
2022-12-11T19:12:23.725Z,81.93
2022-12-11T19:14:54.491Z,81.43
2022-12-11T19:17:24.801Z,80.19
2022-12-11T19:19:55.816Z,78.91
2022-12-11T19:22:25.362Z,78.43
2022-12-11T19:24:54.871Z,77.41
2022-12-11T19:27:24.462Z,76.48
2022-12-11T19:29:54.522Z,76.43
2022-12-11T19:32:24.076Z,76.10
2022-12-11T19:34:55.482Z,75.23
2022-12-11T19:37:25.264Z,75.60
2022-12-11T19:39:55.042Z,73.88
2022-12-11T19:42:24.704Z,75.66
2022-12-11T19:44:54.412Z,73.95
2022-12-11T19:47:24.196Z,73.63
2022-12-11T19:49:56.570Z,73.05
2022-12-11T19:52:26.226Z,72.84
2022-12-11T19:54:55.738Z,72.59
2022-12-11T19:57:27.169Z,72.64
2022-12-11T19:59:57.487Z,71.66
2022-12-11T20:02:27.375Z,72.09
2022-12-11T20:04:58.356Z,71.56
2022-12-11T20:07:30.775Z,71.39
2022-12-11T20:10:01.261Z,72.04
2022-12-11T20:12:31.602Z,71.76
2022-12-11T20:15:01.992Z,71.18
2022-12-11T20:17:33.472Z,71.02
2022-12-11T20:20:04.810Z,70.95
2022-12-11T20:22:34.982Z,70.75
2022-12-11T20:25:04.573Z,70.52
2022-12-11T20:27:34.711Z,69.93
2022-12-11T20:30:05.671Z,70.25
2022-12-11T20:32:36.961Z,70.56
2022-12-11T20:35:08.534Z,69.87
2022-12-11T20:37:38.070Z,69.67
2022-12-11T20:40:08.432Z,69.19
2022-12-11T20:42:38.082Z,69.96
2022-12-11T20:45:08.750Z,68.89
2022-12-11T20:47:38.345Z,70.18
2022-12-11T20:50:11.169Z,69.20
2022-12-11T20:52:40.796Z,70.25
2022-12-11T20:55:11.014Z,69.44
2022-12-11T20:57:45.081Z,69.53
2022-12-11T21:00:17.565Z,68.92
2022-12-11T21:02:47.531Z,69.03
2022-12-11T21:05:19.006Z,68.92
2022-12-11T21:07:48.751Z,68.57
2022-12-11T21:10:18.518Z,68.74
2022-12-11T21:12:48.831Z,68.83
2022-12-11T21:15:19.706Z,69.17
2022-12-11T21:17:49.367Z,69.61
2022-12-11T21:20:21.271Z,68.14
2022-12-11T21:22:50.829Z,68.24
2022-12-11T21:25:20.519Z,68.60
2022-12-11T21:27:50.303Z,68.37
2022-12-11T21:30:20.511Z,68.80
2022-12-11T21:32:50.076Z,69.53
2022-12-11T21:35:21.794Z,70.50
2022-12-11T21:37:51.352Z,71.04
2022-12-11T21:40:21.032Z,70.21
2022-12-11T21:42:50.630Z,70.27
2022-12-11T21:48:09.971Z,71.23
2022-12-11T21:50:41.357Z,71.21
2022-12-11T21:53:10.945Z,71.06
2022-12-11T21:55:41.276Z,70.30
2022-12-11T21:58:11.087Z,70.62
2022-12-11T22:00:40.950Z,69.55
2022-12-11T22:03:10.557Z,69.18
2022-12-11T22:05:41.424Z,68.73
2022-12-11T22:08:10.990Z,69.28
2022-12-11T22:10:40.744Z,70.60
2022-12-11T22:13:10.977Z,70.75
2022-12-11T22:15:41.231Z,70.78
2022-12-11T22:18:10.830Z,71.13
2022-12-11T22:20:41.749Z,71.04
2022-12-11T22:23:11.326Z,72.47
2022-12-11T22:25:40.948Z,75.12
2022-12-11T22:28:10.489Z,75.45
2022-12-11T22:30:40.549Z,76.37
2022-12-11T22:33:10.158Z,78.60
2022-12-11T22:35:41.100Z,79.24
2022-12-11T22:38:10.597Z,79.44
2022-12-11T22:40:41.291Z,79.77
2022-12-11T22:43:10.819Z,80.15
2022-12-11T22:45:40.947Z,80.54
2022-12-11T22:48:10.920Z,80.13
2022-12-11T22:50:42.727Z,80.29
2022-12-11T22:53:12.388Z,80.32
2022-12-11T22:55:41.901Z,80.21
2022-12-11T22:58:11.399Z,79.74
2022-12-11T23:00:41.102Z,79.46
2022-12-11T23:03:10.740Z,79.63
2022-12-11T23:05:43.284Z,78.74
2022-12-11T23:08:12.898Z,78.75
2022-12-11T23:10:42.781Z,79.25
2022-12-11T23:13:12.806Z,78.76
2022-12-11T23:15:42.910Z,79.12
2022-12-11T23:18:12.580Z,79.14
2022-12-11T23:20:44.222Z,78.48
2022-12-11T23:23:13.757Z,78.41
2022-12-11T23:25:43.295Z,78.68
2022-12-11T23:28:12.827Z,78.65
2022-12-11T23:30:42.784Z,79.02
2022-12-11T23:33:12.405Z,79.37
2022-12-11T23:35:43.369Z,78.63
2022-12-11T23:38:13.342Z,79.31
2022-12-11T23:40:42.950Z,79.46
2022-12-11T23:43:12.674Z,79.15
2022-12-11T23:45:44.399Z,79.89
2022-12-11T23:48:14.392Z,79.62
2022-12-11T23:50:45.657Z,79.66
2022-12-11T23:53:15.359Z,79.99
2022-12-11T23:55:45.982Z,80.07
2022-12-11T23:58:15.488Z,79.58
